createdAt,value
2023-01-02T00:00:02.008Z,9.86
2023-01-02T00:02:40.289Z,10.02
2023-01-02T00:05:09.498Z,9.92
2023-01-02T00:07:37.591Z,9.84
2023-01-02T00:10:05.899Z,10.01
2023-01-02T00:12:34.309Z,9.91
2023-01-02T00:15:03.248Z,9.98
2023-01-02T00:17:31.143Z,10.01
2023-01-02T00:19:59.571Z,9.78
2023-01-02T00:22:27.580Z,9.82
2023-01-02T00:24:55.510Z,10.04
2023-01-02T00:27:23.938Z,9.66
2023-01-02T00:29:51.985Z,9.82
2023-01-02T00:32:19.892Z,10.08
2023-01-02T00:34:48.207Z,10.02
2023-01-02T00:37:16.129Z,9.67
2023-01-02T00:39:44.315Z,9.87
2023-01-02T00:42:12.639Z,9.76
2023-01-02T00:44:40.539Z,10.05
2023-01-02T00:47:08.512Z,9.39
2023-01-02T00:49:36.729Z,10.02
2023-01-02T00:52:04.778Z,9.64
2023-01-02T00:54:32.679Z,9.76
2023-01-02T00:57:00.990Z,9.73
2023-01-02T00:59:28.895Z,9.58
2023-01-02T01:01:57.009Z,9.39
2023-01-02T01:04:25.420Z,9.46
2023-01-02T01:06:53.326Z,9.43
2023-01-02T01:09:22.108Z,9.50
2023-01-02T01:11:50.401Z,9.34
2023-01-02T01:14:18.440Z,9.73
2023-01-02T01:16:46.580Z,9.31
2023-01-02T01:19:14.858Z,9.11
2023-01-02T01:21:42.808Z,9.09
2023-01-02T01:24:10.808Z,9.18
2023-01-02T01:26:39.239Z,9.35
2023-01-02T01:29:07.323Z,9.35
2023-01-02T01:31:35.254Z,9.28
2023-01-02T01:34:03.608Z,9.24
2023-01-02T01:36:32.030Z,9.20
2023-01-02T01:38:59.981Z,9.05
2023-01-02T01:41:28.338Z,8.86
2023-01-02T01:43:58.578Z,8.25
2023-01-02T01:46:41.727Z,8.61
2023-01-02T01:49:29.400Z,9.25
2023-01-02T01:52:01.358Z,9.33
2023-01-02T01:54:38.820Z,9.19
2023-01-02T01:57:21.248Z,9.09
2023-01-02T01:59:49.778Z,9.46
2023-01-02T02:02:17.927Z,9.39
2023-01-02T02:04:46.637Z,9.30
2023-01-02T02:07:14.594Z,9.50
2023-01-02T02:09:47.491Z,9.52
2023-01-02T02:12:19.815Z,9.55
2023-01-02T02:14:51.068Z,9.38
2023-01-02T02:17:38.108Z,9.48
2023-01-02T02:20:06.350Z,9.55
2023-01-02T02:23:02.847Z,9.21
2023-01-02T02:25:52.473Z,8.95
2023-01-02T10:05:13.148Z,9.43
2023-01-02T10:07:44.732Z,9.45
2023-01-02T10:10:28.879Z,9.48
2023-01-02T10:13:06.537Z,9.65
2023-01-02T10:15:35.615Z,9.48
2023-01-02T10:18:29.157Z,9.25
2023-01-02T10:21:16.170Z,9.35
2023-01-02T10:23:50.638Z,9.57
2023-01-02T10:26:24.521Z,9.67
2023-01-02T10:29:09.864Z,9.92
2023-01-02T10:31:48.617Z,9.63
2023-01-02T10:34:22.459Z,9.86
2023-01-02T10:36:51.458Z,9.84
2023-01-02T10:39:22.622Z,10.01
2023-01-02T10:41:55.773Z,9.96
2023-01-02T10:44:36.083Z,9.91
2023-01-02T10:47:39.791Z,9.81
2023-01-02T10:50:16.868Z,9.95
2023-01-02T10:53:06.895Z,10.02
2023-01-02T10:55:46.189Z,10.00
2023-01-02T10:58:23.153Z,10.12
2023-01-02T11:01:03.765Z,10.13
2023-01-02T11:03:33.051Z,9.99
2023-01-02T11:06:26.886Z,10.39
2023-01-02T11:09:20.354Z,9.96
2023-01-02T11:11:57.711Z,10.36
2023-01-02T11:14:34.792Z,10.25
2023-01-02T11:17:22.416Z,10.56
2023-01-02T11:19:52.701Z,10.71
2023-01-02T11:22:24.323Z,10.78
2023-01-02T11:25:00.469Z,11.00
2023-01-02T11:27:58.007Z,11.48
2023-01-02T11:30:36.506Z,11.48
2023-01-02T11:33:14.061Z,12.07
2023-01-02T11:35:51.828Z,12.68
2023-01-02T11:38:29.735Z,13.55
2023-01-02T11:41:03.257Z,14.60
2023-01-02T11:43:52.293Z,14.76
2023-01-02T11:46:36.858Z,14.85
2023-01-02T11:49:23.718Z,15.93
2023-01-02T11:51:58.548Z,15.97
2023-01-02T11:55:37.743Z,16.72
2023-01-02T11:58:45.393Z,17.02
2023-01-02T12:01:50.403Z,17.37
2023-01-02T12:04:19.239Z,17.98
2023-01-02T12:07:00.393Z,17.77
2023-01-02T12:09:57.130Z,17.58
2023-01-02T12:12:51.283Z,17.71
2023-01-02T12:15:25.873Z,17.42
2023-01-02T12:18:29.473Z,17.99
2023-01-02T12:21:26.215Z,18.14
2023-01-02T12:24:32.095Z,17.74
2023-01-02T12:27:26.854Z,17.54
2023-01-02T12:30:17.754Z,17.59
2023-01-02T12:33:48.091Z,17.22
2023-01-02T12:36:28.511Z,17.19
2023-01-02T12:39:28.796Z,17.32
2023-01-02T12:42:17.982Z,17.73
2023-01-02T12:44:53.222Z,16.94
2023-01-02T12:47:43.381Z,16.35
2023-01-02T12:50:37.257Z,16.41
2023-01-02T12:53:22.122Z,15.87
2023-01-02T12:56:16.832Z,14.91
2023-01-02T12:59:27.697Z,15.02
2023-01-02T13:02:05.121Z,15.23
2023-01-02T13:04:45.513Z,14.99
2023-01-02T13:07:37.393Z,14.53
2023-01-02T13:10:06.718Z,14.29
2023-01-02T13:12:36.454Z,14.78
2023-01-02T13:15:19.646Z,14.21
2023-01-02T13:17:51.925Z,14.08
2023-01-02T13:20:45.131Z,14.25
2023-01-02T13:23:24.434Z,14.23
2023-01-02T13:25:56.050Z,14.25
2023-01-02T13:28:24.957Z,14.07
2023-01-02T13:31:26.696Z,13.83
2023-01-02T13:33:51.200Z,13.94
2023-01-02T13:36:21.831Z,13.89
2023-01-02T13:38:54.995Z,13.79
2023-01-02T13:41:23.513Z,13.86
2023-01-02T13:44:01.362Z,13.80
2023-01-02T13:47:02.043Z,13.60
2023-01-02T13:49:21.012Z,13.87
2023-01-02T13:51:49.261Z,13.65
2023-01-02T13:54:21.280Z,13.80
2023-01-02T13:57:38.073Z,13.28
2023-01-02T14:00:54.363Z,13.57
2023-01-02T14:03:23.896Z,13.39
2023-01-02T14:06:01.203Z,13.29
2023-01-02T14:09:05.146Z,12.71
2023-01-02T14:11:58.508Z,13.30
2023-01-02T14:14:37.291Z,12.90
2023-01-02T14:17:27.661Z,12.30
2023-01-02T14:20:29.461Z,12.56
2023-01-02T14:23:03.314Z,12.86
2023-01-02T14:25:32.980Z,12.94
2023-01-02T14:28:03.266Z,12.90
2023-01-02T14:30:33.910Z,12.48
2023-01-02T14:33:05.158Z,12.69
2023-01-02T14:35:38.630Z,12.22
2023-01-02T14:38:17.895Z,11.59
2023-01-02T14:40:47.369Z,12.07
2023-01-02T14:43:32.048Z,11.79
2023-01-02T14:46:10.860Z,12.09
2023-01-02T14:48:48.113Z,11.94
2023-01-02T14:51:21.947Z,12.00
2023-01-02T14:53:55.781Z,11.66
2023-01-02T14:56:30.901Z,11.48
2023-01-02T14:58:59.529Z,11.22
2023-01-02T15:01:43.169Z,11.34
2023-01-02T15:04:28.613Z,11.22
2023-01-02T15:07:27.686Z,11.35
2023-01-02T15:10:01.393Z,11.15
2023-01-02T15:12:53.483Z,10.66
2023-01-02T15:15:25.873Z,11.07
2023-01-02T15:17:59.273Z,10.94
2023-01-02T15:20:27.838Z,10.55
2023-01-02T15:22:57.139Z,10.62
2023-01-02T15:25:34.789Z,10.51
2023-01-02T15:28:03.692Z,10.22
2023-01-02T15:30:38.583Z,10.50
2023-01-02T15:33:34.283Z,10.38
2023-01-02T15:36:05.759Z,10.84
2023-01-02T15:38:34.354Z,10.27
2023-01-02T15:41:02.776Z,10.13
2023-01-02T15:44:01.984Z,10.11
2023-01-02T15:46:30.569Z,10.41
2023-01-02T15:48:59.824Z,10.31
2023-01-02T15:51:40.365Z,10.38
2023-01-02T15:54:14.443Z,10.38
2023-01-02T15:56:42.616Z,9.23
2023-01-02T15:59:29.645Z,8.96
2023-01-02T16:01:58.112Z,9.27
2023-01-02T16:04:29.698Z,9.56
2023-01-02T16:06:59.063Z,9.29
2023-01-02T16:09:31.872Z,8.72
2023-01-02T16:12:02.437Z,8.72
2023-01-02T16:14:44.661Z,8.43
2023-01-02T16:17:32.000Z,8.92
2023-01-02T16:20:22.245Z,8.77
2023-01-02T16:22:53.535Z,9.04
2023-01-02T16:25:28.176Z,9.32
2023-01-02T16:28:35.011Z,9.28
2023-01-02T16:31:14.600Z,9.43
2023-01-02T16:33:46.108Z,9.41
2023-01-02T16:36:15.505Z,9.00
2023-01-02T16:39:02.615Z,9.44
2023-01-02T16:41:36.409Z,9.58
2023-01-02T16:44:14.368Z,9.89
2023-01-02T16:46:53.514Z,9.40
2023-01-02T16:49:23.098Z,9.54
2023-01-02T16:51:55.844Z,9.57
2023-01-02T16:54:26.016Z,9.60
2023-01-02T16:57:00.275Z,9.38
2023-01-02T16:59:32.103Z,9.34
2023-01-02T17:02:06.377Z,9.48
2023-01-02T17:04:38.308Z,9.46
2023-01-02T17:07:08.276Z,9.65
2023-01-02T17:09:36.473Z,9.82
2023-01-02T17:12:05.300Z,9.92
2023-01-02T17:14:34.411Z,9.73
2023-01-02T17:17:08.240Z,9.82
2023-01-02T17:19:45.861Z,9.77
2023-01-02T17:22:22.706Z,9.83
2023-01-02T17:25:04.321Z,9.78
2023-01-02T17:27:36.683Z,9.84
2023-01-02T17:30:07.421Z,9.89
2023-01-02T17:32:36.555Z,9.54
2023-01-02T17:35:07.203Z,10.08
2023-01-02T17:37:39.970Z,9.95
2023-01-02T17:40:13.966Z,9.89
2023-01-02T17:42:45.343Z,9.85
2023-01-02T17:45:14.245Z,9.87
2023-01-02T17:48:05.442Z,9.87
2023-01-02T17:50:33.706Z,9.82
2023-01-02T17:53:02.732Z,9.88
2023-01-02T17:55:31.085Z,9.81
2023-01-02T17:58:01.839Z,10.02
2023-01-02T18:00:30.876Z,9.79
2023-01-02T18:02:59.721Z,10.02
2023-01-02T18:05:27.976Z,10.31
2023-01-02T18:07:56.027Z,9.74
2023-01-02T18:10:29.178Z,9.19
2023-01-02T18:13:01.035Z,9.33
2023-01-02T18:15:30.341Z,9.48
2023-01-02T18:18:00.689Z,8.91
2023-01-02T18:20:30.341Z,9.49
2023-01-02T18:23:01.412Z,9.67
2023-01-02T18:25:31.348Z,9.56
2023-01-02T18:28:25.147Z,9.43
2023-01-02T18:30:58.598Z,9.46
2023-01-02T18:33:28.668Z,9.42
2023-01-02T18:36:03.843Z,10.09
2023-01-02T18:38:38.808Z,9.56
2023-01-02T18:41:26.926Z,9.54
2023-01-02T18:44:25.019Z,9.04
2023-01-02T18:47:11.733Z,8.84
2023-01-02T18:49:43.903Z,9.40
2023-01-02T18:52:14.276Z,8.81
2023-01-02T18:54:49.694Z,9.07
2023-01-02T18:57:29.061Z,8.88
2023-01-02T19:00:09.004Z,8.95
2023-01-02T19:02:50.576Z,8.80
2023-01-02T19:05:25.001Z,9.18
2023-01-02T19:08:29.245Z,8.98
2023-01-02T19:11:20.174Z,8.99
2023-01-02T19:13:51.450Z,9.02
2023-01-02T19:16:24.320Z,9.03
2023-01-02T19:18:55.551Z,9.01
2023-01-02T19:21:26.994Z,9.08
2023-01-02T19:24:04.962Z,8.92
2023-01-02T19:26:42.466Z,8.79
2023-01-02T19:29:11.414Z,8.96
2023-01-02T19:31:43.204Z,9.01
2023-01-02T19:34:34.894Z,8.82
2023-01-02T19:37:28.253Z,8.41
2023-01-02T19:40:03.289Z,8.96
2023-01-02T19:42:33.618Z,8.99
2023-01-02T19:45:16.844Z,8.61
2023-01-02T19:47:45.849Z,8.86
2023-01-02T19:50:16.940Z,8.98
2023-01-02T19:52:45.618Z,8.81
2023-01-02T19:55:14.509Z,8.56
2023-01-02T19:57:42.622Z,8.84
2023-01-02T20:00:13.338Z,8.78
2023-01-02T20:02:54.119Z,8.52
2023-01-02T20:05:23.491Z,8.66
2023-01-02T20:07:53.285Z,8.65
2023-01-02T20:10:22.484Z,8.64
2023-01-02T20:12:51.044Z,8.78
2023-01-02T20:15:23.864Z,8.81
2023-01-02T20:17:53.756Z,9.08
2023-01-02T20:20:24.594Z,8.65
2023-01-02T20:22:55.193Z,8.88
2023-01-02T20:25:26.574Z,8.77
2023-01-02T20:27:56.507Z,8.39
2023-01-02T20:30:28.399Z,8.35
2023-01-02T20:32:56.976Z,8.70
2023-01-02T20:35:25.193Z,8.46
2023-01-02T20:37:53.270Z,8.26
2023-01-02T20:40:21.815Z,9.02
2023-01-02T20:42:50.062Z,8.72
2023-01-02T20:45:18.346Z,9.09
2023-01-02T20:47:47.065Z,8.73
2023-01-02T20:50:15.213Z,8.36
2023-01-02T20:52:43.487Z,8.69
2023-01-02T20:55:11.932Z,8.70
2023-01-02T20:57:40.066Z,9.06
2023-01-02T21:00:11.368Z,9.28
2023-01-02T21:02:42.149Z,8.97
2023-01-02T21:05:10.699Z,8.91
2023-01-02T21:07:38.917Z,9.10
2023-01-02T21:10:08.992Z,8.88
2023-01-02T21:12:55.720Z,8.72
2023-01-02T21:15:42.745Z,9.15
2023-01-02T21:18:13.365Z,8.13
2023-01-02T21:20:46.637Z,8.29
2023-01-02T21:23:16.135Z,8.52
2023-01-02T21:25:45.256Z,8.54
2023-01-02T21:28:14.106Z,8.53
2023-01-02T21:30:45.924Z,8.28
2023-01-02T21:33:16.524Z,8.32
2023-01-02T21:35:46.597Z,8.43
2023-01-02T21:38:18.683Z,9.00
2023-01-02T21:40:47.197Z,8.94
2023-01-02T21:43:15.806Z,8.98
2023-01-02T21:45:46.864Z,8.83
2023-01-02T21:48:15.501Z,8.44
2023-01-02T21:50:47.311Z,8.33
2023-01-02T21:53:17.000Z,8.33
2023-01-02T21:55:46.461Z,8.63
2023-01-02T21:58:15.168Z,8.07
2023-01-02T22:00:46.439Z,7.89
2023-01-02T22:03:15.079Z,8.14
2023-01-02T22:05:43.241Z,8.19
2023-01-02T22:08:11.365Z,8.04
2023-01-02T22:10:42.924Z,8.15
2023-01-02T22:13:11.213Z,8.24
2023-01-02T22:15:39.800Z,8.66
2023-01-02T22:18:08.038Z,8.42
2023-01-02T22:20:36.387Z,8.19
2023-01-02T22:23:04.911Z,8.27
2023-01-02T22:25:33.358Z,8.16
2023-01-02T22:28:01.559Z,8.54
2023-01-02T22:30:34.412Z,8.11
2023-01-02T22:33:03.609Z,8.68
2023-01-02T22:35:33.033Z,8.57
2023-01-02T22:38:01.194Z,7.83
2023-01-02T22:40:29.493Z,7.23
2023-01-02T22:43:00.972Z,6.85
2023-01-02T22:45:34.395Z,7.95
2023-01-02T22:48:08.793Z,8.59
2023-01-02T22:50:44.843Z,7.27
2023-01-02T22:53:16.260Z,7.47
2023-01-02T22:55:44.359Z,7.30
2023-01-02T22:58:13.469Z,7.35
2023-01-02T23:00:41.997Z,7.26
2023-01-02T23:03:14.757Z,7.24
2023-01-02T23:05:43.507Z,7.57
2023-01-02T23:08:11.649Z,7.57
2023-01-02T23:10:39.904Z,7.03
2023-01-02T23:13:11.279Z,6.86
2023-01-02T23:16:00.191Z,6.43
2023-01-02T23:18:53.055Z,7.07
2023-01-02T23:21:33.938Z,6.60
2023-01-02T23:24:02.908Z,7.08
2023-01-02T23:26:41.772Z,7.72
2023-01-02T23:29:11.471Z,8.08
2023-01-02T23:31:42.314Z,6.90
2023-01-02T23:34:12.990Z,6.54
2023-01-02T23:36:43.945Z,6.90
2023-01-02T23:39:15.800Z,6.52
2023-01-02T23:41:44.709Z,5.99
2023-01-02T23:44:13.724Z,5.94
2023-01-02T23:46:42.463Z,5.58
2023-01-02T23:49:11.503Z,6.00
2023-01-02T23:51:40.975Z,6.39
2023-01-02T23:54:10.953Z,6.08
2023-01-02T23:56:41.162Z,6.32
2023-01-02T23:59:12.036Z,6.43
